createdAt,value
2023-04-02T00:01:16.612Z,2.22
2023-04-02T00:03:43.962Z,2.50
2023-04-02T00:06:25.774Z,1.80
2023-04-02T00:08:56.315Z,2.20
2023-04-02T00:11:35.998Z,2.15
2023-04-02T00:14:04.730Z,2.35
2023-04-02T00:16:32.197Z,2.10
2023-04-02T00:19:04.116Z,2.45
2023-04-02T00:21:34.586Z,1.92
2023-04-02T00:24:08.589Z,2.40
2023-04-02T00:26:43.028Z,2.72
2023-04-02T00:29:13.078Z,2.50
2023-04-02T00:31:44.341Z,3.17
2023-04-02T00:34:31.841Z,2.60
2023-04-02T00:37:23.801Z,2.38
2023-04-02T00:39:58.766Z,2.25
2023-04-02T00:42:25.796Z,2.40
2023-04-02T00:44:54.690Z,1.95
2023-04-02T00:47:31.894Z,2.72
2023-04-02T00:50:14.534Z,2.42
2023-04-02T00:52:44.756Z,2.50
2023-04-02T00:55:16.350Z,2.53
2023-04-02T00:57:45.215Z,3.13
2023-04-02T01:00:19.523Z,2.95
2023-04-02T01:03:16.441Z,3.45
2023-04-02T01:06:10.939Z,3.22
2023-04-02T01:09:11.705Z,3.63
2023-04-02T01:12:02.600Z,3.13
2023-04-02T01:15:11.183Z,3.30
2023-04-02T01:18:09.746Z,3.43
2023-04-02T01:20:58.180Z,2.73
2023-04-02T01:23:39.764Z,2.53
2023-04-02T01:26:31.340Z,2.50
2023-04-02T01:29:21.238Z,2.60
2023-04-02T01:31:50.025Z,2.65
2023-04-02T01:34:19.863Z,3.33
2023-04-02T01:36:59.228Z,3.33
2023-04-02T01:42:18.887Z,4.65
2023-04-02T01:45:02.802Z,3.78
2023-04-02T01:47:29.813Z,4.00
2023-04-02T01:50:22.043Z,4.28
2023-04-02T01:52:52.679Z,3.70
2023-04-02T01:55:25.824Z,3.20
2023-04-02T01:57:54.326Z,3.00
2023-04-02T02:00:22.521Z,3.80
2023-04-02T02:02:51.688Z,3.70
2023-04-02T02:05:23.046Z,3.60
2023-04-02T02:07:51.588Z,3.70
2023-04-02T02:10:33.388Z,3.50
2023-04-02T02:13:03.751Z,3.67
2023-04-02T02:15:34.199Z,4.20
2023-04-02T02:18:05.934Z,3.50
2023-04-02T02:20:34.706Z,3.40
2023-04-02T02:23:03.922Z,3.03
2023-04-02T02:25:36.481Z,3.33
2023-04-02T02:28:26.469Z,2.80
2023-04-02T02:31:13.680Z,2.88
2023-04-02T02:33:51.156Z,3.67
2023-04-02T02:36:50.779Z,3.97
2023-04-02T02:39:40.500Z,3.65
2023-04-02T02:42:28.780Z,3.45
2023-04-02T02:44:57.476Z,3.20
2023-04-02T02:47:28.802Z,3.28
2023-04-02T02:50:02.621Z,3.20
2023-04-02T02:52:32.787Z,3.22
2023-04-02T02:55:11.354Z,3.55
2023-04-02T02:57:47.386Z,2.90
2023-04-02T03:00:16.199Z,2.75
2023-04-02T03:02:44.545Z,2.88
2023-04-02T03:05:17.651Z,2.38
2023-04-02T03:07:44.628Z,2.50
2023-04-02T03:10:19.620Z,3.03
2023-04-02T03:12:56.311Z,2.45
2023-04-02T03:16:01.985Z,2.13
2023-04-02T03:19:00.089Z,2.53
2023-04-02T03:21:35.175Z,2.60
2023-04-02T03:24:06.748Z,3.28
2023-04-02T03:26:43.028Z,3.53
2023-04-02T03:29:25.134Z,3.53
2023-04-02T03:31:59.853Z,3.30
2023-04-02T03:34:32.959Z,3.00
2023-04-02T03:37:12.550Z,2.88
2023-04-02T03:39:52.395Z,2.88
2023-04-02T03:42:25.321Z,3.20
2023-04-02T03:45:12.235Z,2.65
2023-04-02T03:47:46.789Z,2.90
2023-04-02T03:50:46.369Z,2.72
2023-04-02T03:53:13.860Z,3.17
2023-04-02T03:55:42.112Z,3.45
2023-04-02T03:58:18.818Z,3.13
2023-04-02T04:01:04.013Z,3.60
2023-04-02T04:03:36.708Z,3.35
2023-04-02T04:06:17.392Z,3.85
2023-04-02T04:08:50.752Z,3.47
2023-04-02T04:11:22.807Z,3.50
2023-04-02T04:13:53.970Z,3.40
2023-04-02T04:16:24.578Z,4.20
2023-04-02T04:19:03.603Z,3.92
2023-04-02T04:21:31.400Z,4.45
2023-04-02T04:24:05.927Z,3.90
2023-04-02T04:26:39.617Z,4.47
2023-04-02T04:29:18.274Z,4.75
2023-04-02T04:31:50.497Z,5.00
2023-04-02T04:34:53.345Z,5.38
2023-04-02T04:37:33.805Z,5.80
2023-04-02T04:40:26.452Z,5.20
2023-04-02T04:42:57.123Z,5.20
2023-04-02T04:45:46.036Z,4.90
2023-04-02T04:48:21.705Z,5.90
2023-04-02T04:51:00.968Z,6.28
2023-04-02T04:53:30.008Z,5.80
2023-04-02T04:56:12.566Z,5.75
2023-04-02T04:59:17.624Z,5.78
2023-04-02T05:01:55.594Z,5.20
2023-04-02T05:04:28.769Z,4.57
2023-04-02T05:07:15.742Z,5.38
2023-04-02T05:09:52.375Z,4.88
2023-04-02T05:12:56.267Z,5.55
2023-04-02T05:15:42.297Z,4.85
2023-04-02T05:18:41.438Z,4.95
2023-04-02T05:21:24.999Z,5.13
2023-04-02T05:24:14.830Z,5.60
2023-04-02T05:26:47.012Z,5.40
2023-04-02T05:29:21.000Z,6.18
2023-04-02T05:32:09.330Z,6.47
2023-04-02T05:34:39.168Z,7.43
2023-04-02T05:37:09.238Z,7.32
2023-04-02T05:39:35.927Z,6.32
2023-04-02T05:42:14.683Z,7.85
2023-04-02T05:44:55.509Z,7.88
2023-04-02T05:47:30.156Z,7.32
2023-04-02T05:50:08.764Z,5.75
2023-04-02T05:52:42.477Z,6.77
2023-04-02T05:55:12.360Z,5.93
2023-04-02T05:57:54.899Z,5.78
2023-04-02T06:03:30.285Z,5.78
2023-04-02T06:06:03.531Z,5.68
2023-04-02T06:08:38.605Z,5.85
2023-04-02T06:11:10.881Z,5.65
2023-04-02T06:13:37.858Z,5.30
2023-04-02T06:16:04.720Z,5.07
2023-04-02T06:18:35.049Z,5.65
2023-04-02T06:21:05.240Z,5.65
2023-04-02T06:23:38.892Z,5.50
2023-04-02T06:26:12.406Z,4.70
2023-04-02T06:28:47.937Z,4.50
2023-04-02T06:31:37.332Z,4.13
2023-04-02T06:36:32.946Z,4.10
2023-04-02T06:39:09.444Z,4.60
2023-04-02T06:41:36.193Z,4.30
2023-04-02T06:44:12.138Z,4.75
2023-04-02T06:46:53.123Z,4.50
2023-04-02T06:49:38.098Z,4.57
2023-04-02T06:52:15.611Z,4.50
2023-04-02T06:54:42.385Z,3.83
2023-04-02T06:57:12.749Z,4.55
2023-04-02T06:59:39.605Z,4.20
2023-04-02T07:02:39.639Z,4.07
2023-04-02T07:05:12.357Z,4.10
2023-04-02T07:07:39.073Z,4.63
2023-04-02T07:10:07.045Z,4.50
2023-04-02T07:12:33.667Z,4.22
2023-04-02T07:15:00.486Z,5.20
2023-04-02T07:17:27.190Z,4.32
2023-04-02T07:19:53.942Z,4.60
2023-04-02T07:22:22.219Z,4.22
2023-04-02T07:24:48.876Z,4.10
2023-04-02T07:27:15.503Z,4.72
2023-04-02T07:29:44.974Z,4.80
2023-04-02T07:32:13.179Z,6.30
2023-04-02T07:34:41.259Z,4.78
2023-04-02T07:37:13.055Z,4.72
2023-04-02T07:39:40.780Z,5.28
2023-04-02T07:42:08.130Z,4.85
2023-04-02T07:44:34.842Z,5.82
2023-04-02T07:47:01.908Z,5.25
2023-04-02T07:49:28.694Z,5.20
2023-04-02T07:51:55.340Z,5.32
2023-04-02T07:54:21.965Z,5.93
2023-04-02T07:56:48.662Z,5.22
2023-04-02T07:59:15.455Z,4.88
2023-04-02T08:01:43.208Z,6.18
2023-04-02T08:04:18.910Z,7.13
2023-04-02T08:06:46.224Z,7.60
2023-04-02T08:09:13.693Z,9.43
2023-04-02T08:11:42.225Z,10.48
2023-04-02T08:14:09.576Z,11.87
2023-04-02T08:16:47.723Z,10.90
2023-04-02T08:19:15.531Z,18.55
2023-04-02T08:21:42.512Z,9.23
2023-04-02T08:24:09.177Z,10.70
2023-04-02T08:26:36.547Z,7.38
2023-04-02T08:29:04.076Z,8.15
2023-04-02T08:31:30.739Z,8.18
2023-04-02T08:33:57.474Z,10.02
2023-04-02T08:36:31.119Z,9.20
2023-04-02T08:38:57.782Z,9.85
2023-04-02T08:41:31.206Z,10.10
2023-04-02T08:44:09.747Z,10.38
2023-04-02T08:47:03.328Z,9.00
2023-04-02T08:49:36.004Z,17.05
2023-04-02T08:52:02.664Z,17.50
2023-04-02T08:54:32.863Z,16.25
2023-04-02T08:57:06.615Z,15.07
2023-04-02T08:59:36.417Z,15.45
2023-04-02T09:02:13.459Z,12.57
2023-04-02T09:04:41.718Z,12.65
2023-04-02T09:07:16.734Z,12.52
2023-04-02T09:09:46.696Z,12.02
2023-04-02T09:12:25.039Z,10.88
2023-04-02T09:15:10.648Z,10.82
2023-04-02T09:17:50.680Z,10.15
2023-04-02T09:20:26.308Z,11.48
2023-04-02T09:22:54.289Z,12.43
2023-04-02T09:25:33.369Z,10.73
2023-04-02T09:31:21.243Z,11.52
2023-04-02T09:36:30.116Z,10.65
2023-04-02T09:39:01.621Z,11.32
2023-04-02T09:41:32.151Z,10.90
2023-04-02T09:44:21.275Z,11.27
2023-04-02T09:46:53.220Z,11.15
2023-04-02T09:49:27.173Z,11.60
2023-04-02T09:52:24.785Z,12.23
2023-04-02T09:55:18.200Z,11.57
2023-04-02T09:57:46.796Z,10.50
2023-04-02T10:00:41.663Z,8.83
2023-04-02T10:03:24.995Z,9.90
2023-04-02T10:06:13.058Z,9.43
2023-04-02T10:08:42.361Z,10.00
2023-04-02T10:13:56.406Z,8.77
2023-04-02T10:16:38.581Z,8.70
2023-04-02T10:19:13.314Z,8.30
2023-04-02T10:21:43.066Z,9.48
2023-04-02T10:24:14.664Z,7.93
2023-04-02T10:26:53.375Z,7.63
2023-04-02T10:29:32.083Z,7.32
2023-04-02T10:32:23.660Z,7.68
2023-04-02T10:35:22.670Z,8.70
2023-04-02T10:37:54.470Z,7.50
2023-04-02T10:40:41.965Z,7.80
2023-04-02T10:43:42.689Z,8.10
2023-04-02T10:46:43.785Z,7.55
2023-04-02T10:49:44.037Z,8.20
2023-04-02T10:52:21.709Z,7.68
2023-04-02T10:54:48.282Z,8.35
2023-04-02T10:57:26.702Z,8.00
2023-04-02T11:00:00.159Z,7.73
2023-04-02T11:02:36.147Z,8.20
2023-04-02T11:05:13.989Z,7.35
2023-04-02T11:07:52.172Z,8.25
2023-04-02T11:10:21.219Z,8.50
2023-04-02T11:12:59.065Z,8.93
2023-04-02T11:15:27.300Z,8.77
2023-04-02T11:17:54.733Z,8.20
2023-04-02T11:21:09.585Z,8.95
2023-04-02T11:23:53.330Z,8.60
2023-04-02T11:26:31.534Z,7.63
2023-04-02T11:29:22.246Z,8.85
2023-04-02T11:31:51.572Z,8.10
2023-04-02T11:37:10.401Z,7.20
2023-04-02T11:39:56.743Z,7.18
2023-04-02T11:42:34.634Z,7.05
2023-04-02T11:45:23.934Z,6.35
2023-04-02T11:50:42.818Z,6.20
2023-04-02T11:53:12.395Z,6.82
2023-04-02T11:58:10.157Z,6.53
2023-04-02T12:01:11.919Z,6.05
2023-04-02T12:04:07.929Z,5.93
2023-04-02T12:06:47.221Z,6.93
2023-04-02T12:09:14.772Z,6.28
2023-04-02T12:11:42.710Z,6.20
2023-04-02T12:14:43.467Z,6.20
2023-04-02T12:17:38.463Z,5.88
2023-04-02T12:20:09.189Z,5.80
2023-04-02T12:22:39.470Z,5.95
2023-04-02T12:25:22.042Z,5.50
2023-04-02T12:28:02.839Z,6.07
2023-04-02T12:30:29.444Z,6.13
2023-04-02T12:32:59.119Z,5.72
2023-04-02T12:35:30.806Z,5.43
2023-04-02T12:37:58.057Z,5.93
2023-04-02T12:40:26.175Z,5.80
2023-04-02T12:42:52.819Z,7.82
2023-04-02T12:45:29.706Z,5.70
2023-04-02T12:47:58.519Z,28.40
2023-04-02T12:50:25.822Z,8.57
2023-04-02T12:52:55.177Z,8.18
2023-04-02T12:57:57.517Z,6.40
2023-04-02T13:00:27.251Z,5.93
2023-04-02T13:03:06.276Z,5.60
2023-04-02T13:05:42.609Z,6.50
2023-04-02T13:08:39.019Z,5.97
2023-04-02T13:11:06.369Z,6.47
2023-04-02T13:13:36.981Z,6.63
2023-04-02T13:16:05.915Z,6.38
2023-04-02T13:18:35.664Z,6.15
2023-04-02T13:21:05.273Z,5.60
2023-04-02T13:23:32.311Z,5.97
2023-04-02T13:26:20.283Z,5.90
2023-04-02T13:28:56.529Z,5.88
2023-04-02T13:31:23.266Z,6.28
2023-04-02T13:33:49.974Z,5.60
2023-04-02T13:36:16.764Z,4.95
2023-04-02T13:38:43.387Z,5.38
2023-04-02T13:41:33.910Z,6.22
2023-04-02T13:44:03.272Z,6.25
2023-04-02T13:48:58.618Z,4.95
2023-04-02T13:51:37.218Z,4.93
2023-04-02T13:54:11.850Z,4.20
2023-04-02T13:56:38.671Z,4.45
2023-04-02T13:59:06.309Z,4.28
2023-04-02T14:01:33.126Z,3.78
2023-04-02T14:04:00.642Z,3.40
2023-04-02T14:06:46.694Z,3.92
2023-04-02T14:09:13.247Z,4.32
2023-04-02T14:11:57.890Z,3.40
2023-04-02T14:14:49.430Z,3.50
2023-04-02T14:17:31.369Z,6.97
2023-04-02T14:20:10.881Z,45.63
2023-04-02T14:23:00.336Z,6.00
2023-04-02T14:26:12.037Z,3.30
2023-04-02T14:28:49.237Z,3.15
2023-04-02T14:31:32.654Z,5.25
2023-04-02T14:34:24.475Z,18.05
2023-04-02T14:37:00.386Z,3.63
2023-04-02T14:39:42.559Z,4.03
2023-04-02T14:42:44.940Z,5.00
2023-04-02T14:45:22.641Z,3.45
2023-04-02T14:47:57.692Z,3.30
2023-04-02T14:50:33.575Z,4.15
2023-04-02T14:53:14.175Z,6.40
2023-04-02T14:55:47.225Z,3.25
2023-04-02T14:58:23.255Z,5.13
2023-04-02T15:01:06.219Z,3.30
2023-04-02T15:03:46.083Z,5.35
2023-04-02T15:06:21.309Z,4.38
2023-04-02T15:09:08.429Z,4.18
2023-04-02T15:11:44.592Z,4.72
2023-04-02T15:14:36.522Z,3.60
2023-04-02T15:17:03.262Z,4.82
2023-04-02T15:19:29.954Z,4.30
2023-04-02T15:22:54.129Z,3.58
2023-04-02T15:25:34.077Z,2.78
2023-04-02T15:28:09.837Z,3.28
2023-04-02T15:30:43.437Z,2.28
2023-04-02T15:33:32.254Z,2.40
2023-04-02T15:36:32.586Z,2.00
2023-04-02T15:39:31.633Z,2.55
2023-04-02T15:42:10.321Z,2.05
2023-04-02T15:44:47.394Z,1.77
2023-04-02T15:47:44.650Z,1.63
2023-04-02T15:50:36.027Z,1.77
2023-04-02T15:53:26.510Z,1.73
2023-04-02T15:56:19.942Z,3.30
2023-04-02T15:59:25.541Z,1.98
2023-04-02T16:02:21.535Z,1.70
2023-04-02T16:05:14.601Z,3.55
2023-04-02T16:07:49.988Z,1.85
2023-04-02T16:10:40.072Z,2.00
2023-04-02T16:13:31.495Z,2.30
2023-04-02T16:18:41.407Z,1.83
2023-04-02T16:21:12.548Z,2.22
2023-04-02T16:23:40.088Z,3.20
2023-04-02T16:26:31.369Z,2.40
2023-04-02T16:29:19.779Z,2.00
2023-04-02T16:32:07.766Z,1.87
2023-04-02T16:35:07.744Z,2.00
2023-04-02T16:40:41.665Z,1.90
2023-04-02T16:43:29.844Z,1.63
2023-04-02T16:46:11.901Z,1.90
2023-04-02T16:48:49.132Z,2.22
2023-04-02T16:51:44.423Z,1.95
2023-04-02T16:54:52.613Z,1.88
2023-04-02T16:57:25.062Z,1.70
2023-04-02T16:59:57.784Z,2.95
2023-04-02T17:02:30.544Z,2.10
2023-04-02T17:05:02.425Z,2.28
2023-04-02T17:07:34.787Z,1.98
2023-04-02T17:10:27.029Z,2.13
2023-04-02T17:13:31.627Z,2.63
2023-04-02T17:16:21.927Z,2.42
2023-04-02T17:18:52.886Z,1.63
2023-04-02T17:21:24.725Z,1.80
2023-04-02T17:23:56.707Z,3.28
2023-04-02T17:26:29.785Z,2.22
2023-04-02T17:29:00.943Z,2.15
2023-04-02T17:31:34.245Z,1.55
2023-04-02T17:34:11.953Z,1.67
2023-04-02T17:36:56.326Z,1.83
2023-04-02T17:39:36.446Z,2.42
2023-04-02T17:42:47.452Z,1.83
2023-04-02T17:45:32.926Z,2.15
2023-04-02T17:48:18.274Z,2.13
2023-04-02T17:50:53.559Z,1.90
2023-04-02T17:53:27.096Z,1.70
2023-04-02T17:56:14.949Z,1.77
2023-04-02T17:58:50.941Z,1.75
2023-04-02T18:01:22.507Z,1.65
2023-04-02T18:04:27.998Z,2.00
2023-04-02T18:07:00.601Z,1.67
2023-04-02T18:09:36.353Z,1.42
2023-04-02T18:12:18.866Z,2.35
2023-04-02T18:15:04.212Z,1.90
2023-04-02T18:17:59.995Z,1.80
2023-04-02T18:20:48.097Z,1.83
2023-04-02T18:23:20.853Z,2.25
2023-04-02T18:26:05.426Z,2.25
2023-04-02T18:28:38.458Z,2.15
2023-04-02T18:31:14.005Z,1.80
2023-04-02T18:34:20.968Z,1.77
2023-04-02T18:37:08.641Z,1.88
2023-04-02T18:39:50.445Z,1.92
2023-04-02T18:42:39.026Z,1.67
2023-04-02T18:45:14.679Z,1.73
2023-04-02T18:47:47.190Z,1.65
2023-04-02T18:50:15.874Z,1.70
2023-04-02T18:52:42.862Z,1.80
2023-04-02T18:55:22.528Z,1.63
2023-04-02T18:57:55.848Z,2.05
2023-04-02T19:00:53.465Z,3.55
2023-04-02T19:03:36.646Z,2.55
2023-04-02T19:06:09.127Z,2.10
2023-04-02T19:08:58.828Z,1.80
2023-04-02T19:11:29.645Z,1.85
2023-04-02T19:14:03.009Z,1.55
2023-04-02T19:16:54.050Z,1.83
2023-04-02T19:19:26.406Z,1.70
2023-04-02T19:22:29.572Z,1.58
2023-04-02T19:25:11.209Z,1.92
2023-04-02T19:27:48.039Z,1.52
2023-04-02T19:30:26.654Z,1.98
2023-04-02T19:32:55.994Z,2.37
2023-04-02T19:35:56.201Z,1.90
2023-04-02T19:39:03.698Z,2.03
2023-04-02T19:41:39.548Z,1.30
2023-04-02T19:44:12.625Z,1.67
2023-04-02T19:46:40.851Z,1.30
2023-04-02T19:49:22.896Z,1.40
2023-04-02T19:51:50.790Z,1.73
2023-04-02T19:54:18.371Z,1.13
2023-04-02T19:56:45.488Z,1.75
2023-04-02T19:59:18.016Z,1.60
2023-04-02T20:01:46.119Z,1.30
2023-04-02T20:04:13.438Z,1.50
2023-04-02T20:06:40.223Z,1.40
2023-04-02T20:09:08.492Z,1.60
2023-04-02T20:11:36.520Z,1.45
2023-04-02T20:14:03.746Z,1.70
2023-04-02T20:16:30.826Z,1.23
2023-04-02T20:18:57.640Z,1.88
2023-04-02T20:21:25.041Z,1.40
2023-04-02T20:23:55.672Z,1.73
2023-04-02T20:26:22.828Z,1.60
2023-04-02T20:28:49.739Z,1.33
2023-04-02T20:31:18.474Z,2.42
2023-04-02T20:36:19.351Z,2.47
2023-04-02T20:38:46.009Z,1.58
2023-04-02T20:41:15.635Z,1.40
2023-04-02T20:43:42.811Z,1.83
2023-04-02T20:46:12.295Z,2.03
2023-04-02T20:48:39.812Z,2.20
2023-04-02T20:51:08.317Z,1.70
2023-04-02T20:53:37.295Z,1.67
2023-04-02T20:56:06.572Z,1.60
2023-04-02T20:58:34.641Z,1.50
2023-04-02T21:01:07.188Z,1.60
2023-04-02T21:03:34.019Z,1.65
2023-04-02T21:06:00.964Z,1.50
2023-04-02T21:08:27.591Z,1.80
2023-04-02T21:11:01.754Z,1.65
2023-04-02T21:13:32.869Z,1.52
2023-04-02T21:16:00.255Z,2.05
2023-04-02T21:18:26.879Z,1.60
2023-04-02T21:21:02.446Z,1.65
2023-04-02T21:23:30.209Z,1.35
2023-04-02T21:26:04.331Z,1.95
2023-04-02T21:28:31.026Z,1.77
2023-04-02T21:31:06.646Z,1.35
2023-04-02T21:33:38.910Z,2.22
2023-04-02T21:36:07.868Z,1.60
2023-04-02T21:38:34.867Z,2.10
2023-04-02T21:41:40.458Z,1.85
2023-04-02T21:44:12.939Z,1.55
2023-04-02T21:46:42.529Z,1.80
2023-04-02T21:49:11.666Z,1.70
2023-04-02T21:51:40.307Z,1.65
2023-04-02T21:54:07.845Z,2.07
2023-04-02T21:56:36.682Z,1.65
2023-04-02T21:59:04.955Z,2.00
2023-04-02T22:01:34.884Z,1.75
2023-04-02T22:04:03.898Z,1.40
2023-04-02T22:06:32.662Z,1.90
2023-04-02T22:09:05.609Z,1.77
2023-04-02T22:11:35.748Z,1.35
2023-04-02T22:14:03.627Z,1.60
2023-04-02T22:16:32.506Z,1.50
2023-04-02T22:19:01.839Z,2.03
2023-04-02T22:21:30.776Z,1.55
2023-04-02T22:24:01.678Z,1.60
2023-04-02T22:26:29.245Z,1.55
2023-04-02T22:28:55.973Z,1.50
2023-04-02T22:31:25.863Z,2.10
2023-04-02T22:33:53.867Z,1.88
2023-04-02T22:36:22.206Z,1.50
2023-04-02T22:38:49.399Z,2.08
2023-04-02T22:41:22.552Z,1.67
2023-04-02T22:43:49.844Z,1.58
2023-04-02T22:46:18.284Z,1.80
2023-04-02T22:48:46.239Z,1.57
2023-04-02T22:51:14.397Z,1.63
2023-04-02T22:53:41.718Z,1.40
2023-04-02T22:56:23.190Z,2.05
2023-04-02T22:58:49.843Z,1.60
2023-04-02T23:01:18.446Z,1.83
2023-04-02T23:03:45.712Z,1.50
2023-04-02T23:06:14.639Z,1.80
2023-04-02T23:08:41.305Z,2.05
2023-04-02T23:11:13.590Z,1.70
2023-04-02T23:13:41.011Z,1.92
2023-04-02T23:16:10.720Z,1.70
2023-04-02T23:18:38.922Z,1.77
2023-04-02T23:21:06.656Z,1.73
2023-04-02T23:23:34.217Z,2.25
2023-04-02T23:26:12.706Z,1.75
2023-04-02T23:28:40.016Z,1.80
2023-04-02T23:31:11.091Z,2.05
2023-04-02T23:33:37.782Z,2.00
2023-04-02T23:36:14.035Z,1.52
2023-04-02T23:38:40.967Z,1.50
2023-04-02T23:41:07.673Z,2.65
2023-04-02T23:43:34.528Z,1.45
2023-04-02T23:46:01.215Z,1.58
2023-04-02T23:48:27.847Z,1.80
2023-04-02T23:50:54.484Z,1.58
2023-04-02T23:53:21.227Z,1.55
2023-04-02T23:55:48.066Z,1.73
2023-04-02T23:58:14.713Z,1.90
